createdAt,value
2019-05-06T00:00:15.234Z,3.30
2019-05-06T00:00:56.498Z,3.80
2019-05-06T00:01:26.088Z,3.00
2019-05-06T00:02:00.648Z,2.90
2019-05-06T00:02:35.309Z,2.87
2019-05-06T00:03:09.876Z,3.20
2019-05-06T00:03:44.445Z,2.87
2019-05-06T00:04:19.036Z,2.83
2019-05-06T00:04:54.195Z,3.40
2019-05-06T00:05:28.803Z,3.40
2019-05-06T00:06:03.966Z,2.80
2019-05-06T00:06:38.576Z,3.30
2019-05-06T00:07:13.819Z,3.50
2019-05-06T00:07:54.770Z,2.95
2019-05-06T00:08:29.398Z,4.12
2019-05-06T00:09:04.924Z,2.83
2019-05-06T00:09:39.504Z,3.00
2019-05-06T00:10:25.701Z,3.35
2019-05-06T00:11:00.384Z,3.25
2019-05-06T00:11:35.026Z,3.25
2019-05-06T00:12:09.670Z,2.98
2019-05-06T00:12:44.504Z,3.30
2019-05-06T00:13:19.058Z,3.05
2019-05-06T00:13:54.329Z,2.92
2019-05-06T00:14:29.129Z,2.52
2019-05-06T00:15:06.323Z,2.58
2019-05-06T00:15:40.886Z,3.05
2019-05-06T00:16:15.391Z,3.37
2019-05-06T00:16:50.054Z,3.05
2019-05-06T00:17:24.960Z,3.40
2019-05-06T00:17:59.532Z,3.70
2019-05-06T00:18:34.377Z,2.98
2019-05-06T00:19:08.989Z,2.90
2019-05-06T00:19:44.736Z,3.05
2019-05-06T00:20:19.392Z,2.92
2019-05-06T00:20:54.778Z,3.00
2019-05-06T00:21:30.170Z,3.10
2019-05-06T00:22:04.950Z,3.17
2019-05-06T00:22:39.505Z,3.02
2019-05-06T00:23:31.743Z,3.00
2019-05-06T00:24:06.317Z,3.02
2019-05-06T00:24:44.006Z,3.60
2019-05-06T00:25:25.947Z,3.10
2019-05-06T00:26:03.918Z,2.90
2019-05-06T00:26:49.016Z,2.67
2019-05-06T00:27:31.112Z,3.20
2019-05-06T00:28:09.964Z,2.60
2019-05-06T00:28:46.188Z,3.25
2019-05-06T00:29:24.191Z,3.08
2019-05-06T00:29:58.595Z,3.20
2019-05-06T00:30:34.539Z,3.33
2019-05-06T00:31:15.943Z,3.05
2019-05-06T00:31:46.904Z,3.17
2019-05-06T00:32:21.417Z,2.80
2019-05-06T00:32:55.994Z,2.83
2019-05-06T00:33:30.532Z,3.05
2019-05-06T00:34:05.165Z,3.47
2019-05-06T00:34:39.744Z,4.08
2019-05-06T00:35:14.379Z,2.45
2019-05-06T00:35:48.882Z,3.67
2019-05-06T00:36:23.824Z,3.50
2019-05-06T00:36:58.390Z,3.30
2019-05-06T00:37:34.908Z,2.58
2019-05-06T00:38:09.227Z,3.00
2019-05-06T00:38:45.395Z,3.17
2019-05-06T00:39:24.417Z,3.20
2019-05-06T00:40:00.566Z,2.70
2019-05-06T00:40:39.433Z,3.10
2019-05-06T00:41:31.465Z,3.22
2019-05-06T00:42:24.653Z,3.80
2019-05-06T00:43:00.859Z,2.77
2019-05-06T00:43:35.371Z,2.70
2019-05-06T00:44:09.961Z,3.17
2019-05-06T00:44:44.460Z,3.10
2019-05-06T00:45:18.961Z,3.20
2019-05-06T00:45:53.721Z,3.08
2019-05-06T00:46:28.402Z,3.17
2019-05-06T00:47:04.342Z,3.05
2019-05-06T00:47:38.995Z,2.95
2019-05-06T00:48:13.953Z,2.75
2019-05-06T00:48:48.602Z,2.37
2019-05-06T00:49:23.857Z,2.60
2019-05-06T00:49:58.507Z,3.00
2019-05-06T00:50:34.908Z,3.50
2019-05-06T00:51:09.474Z,2.70
2019-05-06T00:51:44.349Z,2.92
2019-05-06T00:52:18.934Z,2.70
2019-05-06T00:52:54.285Z,2.72
2019-05-06T00:53:30.575Z,2.90
2019-05-06T00:54:15.610Z,2.58
2019-05-06T00:54:50.255Z,2.30
2019-05-06T00:55:24.757Z,2.72
2019-05-06T00:55:59.514Z,2.65
2019-05-06T00:56:34.286Z,3.10
2019-05-06T00:57:08.951Z,3.37
2019-05-06T00:57:44.028Z,3.30
2019-05-06T00:58:18.823Z,2.60
2019-05-06T00:58:54.481Z,3.00
2019-05-06T00:59:29.068Z,3.00
2019-05-06T01:00:05.009Z,3.00
2019-05-06T01:00:39.561Z,3.08
2019-05-06T01:01:25.817Z,2.70
2019-05-06T01:01:50.410Z,2.85
2019-05-06T01:02:25.027Z,3.10
2019-05-06T01:02:59.534Z,2.92
2019-05-06T01:03:34.698Z,3.27
2019-05-06T01:04:09.498Z,3.50
2019-05-06T01:04:44.614Z,3.42
2019-05-06T01:05:19.300Z,3.25
2019-05-06T01:05:54.713Z,2.83
2019-05-06T01:06:29.321Z,3.10
2019-05-06T01:07:04.058Z,3.10
2019-05-06T01:07:38.689Z,3.05
2019-05-06T01:08:14.181Z,2.98
2019-05-06T01:08:48.713Z,2.50
2019-05-06T01:09:24.062Z,2.62
2019-05-06T01:09:58.574Z,3.30
2019-05-06T01:10:34.417Z,2.70
2019-05-06T01:11:09.664Z,3.15
2019-05-06T01:11:45.510Z,3.40
2019-05-06T01:12:20.110Z,2.95
2019-05-06T01:12:56.384Z,2.80
2019-05-06T01:13:35.256Z,3.37
2019-05-06T01:14:11.407Z,3.15
2019-05-06T01:14:47.559Z,3.40
2019-05-06T01:15:23.892Z,2.90
2019-05-06T01:15:58.432Z,2.85
2019-05-06T01:16:34.561Z,3.22
2019-05-06T01:17:09.213Z,3.25
2019-05-06T01:17:44.367Z,2.98
2019-05-06T01:18:18.984Z,3.05
2019-05-06T01:18:54.141Z,3.37
2019-05-06T01:19:28.836Z,2.72
2019-05-06T01:20:04.664Z,3.05
2019-05-06T01:20:39.168Z,2.55
2019-05-06T01:21:14.498Z,2.83
2019-05-06T01:21:49.279Z,2.90
2019-05-06T01:22:24.622Z,3.47
2019-05-06T01:22:59.340Z,3.02
2019-05-06T01:23:34.279Z,3.20
2019-05-06T01:24:08.809Z,3.22
2019-05-06T01:24:43.914Z,3.35
2019-05-06T01:25:18.489Z,3.33
2019-05-06T01:25:54.569Z,3.37
2019-05-06T01:26:29.175Z,2.80
2019-05-06T01:27:04.096Z,3.40
2019-05-06T01:27:38.632Z,2.80
2019-05-06T01:28:13.793Z,4.00
2019-05-06T01:28:48.440Z,3.55
2019-05-06T01:29:24.077Z,3.58
2019-05-06T01:29:58.734Z,3.12
2019-05-06T01:30:33.789Z,2.60
2019-05-06T01:31:08.530Z,3.20
2019-05-06T01:31:45.790Z,3.50
2019-05-06T01:32:19.292Z,3.70
2019-05-06T01:32:54.343Z,3.02
2019-05-06T01:33:28.946Z,3.30
2019-05-06T01:34:04.270Z,3.10
2019-05-06T01:34:39.042Z,3.50
2019-05-06T01:35:14.072Z,3.40
2019-05-06T01:35:48.709Z,3.22
2019-05-06T01:36:24.951Z,3.12
2019-05-06T01:36:59.641Z,3.12
2019-05-06T01:37:34.731Z,2.95
2019-05-06T01:38:27.346Z,3.30
2019-05-06T01:39:04.393Z,2.45
2019-05-06T01:39:40.720Z,3.83
2019-05-06T01:40:19.874Z,2.70
2019-05-06T01:41:13.642Z,3.90
2019-05-06T01:41:55.913Z,3.30
2019-05-06T01:42:34.287Z,2.87
2019-05-06T01:43:15.673Z,3.10
2019-05-06T01:43:50.182Z,2.87
2019-05-06T01:44:24.933Z,2.90
2019-05-06T01:44:59.475Z,2.90
2019-05-06T01:45:34.852Z,2.77
2019-05-06T01:46:09.539Z,2.60
2019-05-06T01:46:44.729Z,3.27
2019-05-06T01:47:19.350Z,2.92
2019-05-06T01:47:54.382Z,3.90
2019-05-06T01:48:47.218Z,3.05
2019-05-06T01:49:21.794Z,2.90
2019-05-06T01:49:56.306Z,3.00
2019-05-06T01:50:30.931Z,3.30
2019-05-06T01:51:05.517Z,3.47
2019-05-06T01:51:40.014Z,3.40
2019-05-06T01:52:14.760Z,2.72
2019-05-06T01:52:49.273Z,3.47
2019-05-06T01:53:24.233Z,3.30
2019-05-06T01:53:58.803Z,2.80
2019-05-06T01:54:34.314Z,3.22
2019-05-06T01:55:09.790Z,3.20
2019-05-06T01:55:44.371Z,3.20
2019-05-06T01:56:18.957Z,3.30
2019-05-06T01:56:53.860Z,3.08
2019-05-06T01:57:28.412Z,3.25
2019-05-06T01:58:04.983Z,2.77
2019-05-06T01:58:39.105Z,2.92
2019-05-06T01:59:14.078Z,2.90
2019-05-06T01:59:48.769Z,2.70
2019-05-06T02:00:23.818Z,2.98
2019-05-06T02:00:58.397Z,3.58
2019-05-06T02:01:34.215Z,3.40
2019-05-06T02:02:08.844Z,3.47
2019-05-06T02:02:43.869Z,2.50
2019-05-06T02:03:18.545Z,3.12
2019-05-06T02:03:53.818Z,2.67
2019-05-06T02:04:28.450Z,3.47
2019-05-06T02:05:04.742Z,3.67
2019-05-06T02:05:39.459Z,3.10
2019-05-06T02:06:14.255Z,3.67
2019-05-06T02:06:48.862Z,2.70
2019-05-06T02:07:24.094Z,2.95
2019-05-06T02:07:58.822Z,3.72
2019-05-06T02:08:33.698Z,3.00
2019-05-06T02:09:16.240Z,3.85
2019-05-06T02:09:50.743Z,3.70
2019-05-06T02:10:25.253Z,2.42
2019-05-06T02:11:00.161Z,3.08
2019-05-06T02:11:34.708Z,3.35
2019-05-06T02:12:09.291Z,3.33
2019-05-06T02:12:44.355Z,3.17
2019-05-06T02:13:19.004Z,2.83
2019-05-06T02:13:53.887Z,3.42
2019-05-06T02:14:28.493Z,3.25
2019-05-06T02:15:04.143Z,3.12
2019-05-06T02:15:38.776Z,2.77
2019-05-06T02:16:14.542Z,2.95
2019-05-06T02:16:49.414Z,3.05
2019-05-06T02:17:24.139Z,2.90
2019-05-06T02:17:58.777Z,3.83
2019-05-06T02:18:33.964Z,3.35
2019-05-06T02:19:08.520Z,2.98
2019-05-06T02:19:43.814Z,3.33
2019-05-06T02:20:18.505Z,3.10
2019-05-06T02:21:06.477Z,3.83
2019-05-06T02:21:43.818Z,3.12
2019-05-06T02:22:24.098Z,2.60
2019-05-06T02:23:00.387Z,3.45
2019-05-06T02:23:39.564Z,3.20
2019-05-06T02:24:18.742Z,3.10
2019-05-06T02:24:57.902Z,2.65
2019-05-06T02:25:36.614Z,3.10
2019-05-06T02:26:11.127Z,3.10
2019-05-06T02:26:45.703Z,3.25
2019-05-06T02:27:20.223Z,3.70
2019-05-06T02:27:54.867Z,3.10
2019-05-06T02:28:29.396Z,2.77
2019-05-06T02:29:05.681Z,3.27
2019-05-06T02:29:57.921Z,3.20
2019-05-06T02:30:36.478Z,2.83
2019-05-06T02:31:28.380Z,4.05
2019-05-06T02:32:25.926Z,2.92
2019-05-06T02:33:01.159Z,3.58
2019-05-06T02:33:52.029Z,3.50
2019-05-06T02:34:36.492Z,3.40
2019-05-06T02:35:17.936Z,4.08
2019-05-06T02:36:14.694Z,3.35
2019-05-06T02:36:55.095Z,3.12
2019-05-06T02:37:39.386Z,3.30
2019-05-06T02:38:33.191Z,3.20
2019-05-06T02:39:03.598Z,3.20
2019-05-06T02:39:37.359Z,3.58
2019-05-06T02:40:24.899Z,3.47
2019-05-06T02:40:59.300Z,4.17
2019-05-06T02:41:34.055Z,3.45
2019-05-06T02:42:08.640Z,3.50
2019-05-06T02:42:43.312Z,3.47
2019-05-06T02:43:17.797Z,3.60
2019-05-06T02:43:54.222Z,3.50
2019-05-06T02:44:28.674Z,3.45
2019-05-06T02:45:04.175Z,3.45
2019-05-06T02:45:38.826Z,3.17
2019-05-06T02:46:13.688Z,3.40
2019-05-06T02:46:49.917Z,3.27
2019-05-06T02:47:34.925Z,3.85
2019-05-06T02:48:13.773Z,3.58
2019-05-06T02:48:57.972Z,3.95
2019-05-06T02:49:34.158Z,3.40
2019-05-06T02:50:13.518Z,3.40
2019-05-06T02:50:49.670Z,3.60
2019-05-06T02:51:24.576Z,3.30
2019-05-06T02:51:59.167Z,3.15
2019-05-06T02:52:33.726Z,3.30
2019-05-06T02:53:08.302Z,3.62
2019-05-06T02:53:43.120Z,3.10
2019-05-06T02:54:17.770Z,3.35
2019-05-06T02:54:53.715Z,3.12
2019-05-06T02:55:32.444Z,3.52
2019-05-06T02:56:04.787Z,3.08
2019-05-06T02:56:39.451Z,3.10
2019-05-06T02:57:13.966Z,3.50
2019-05-06T02:57:48.546Z,3.20
2019-05-06T02:58:23.871Z,3.05
2019-05-06T02:58:58.523Z,2.90
2019-05-06T02:59:33.304Z,3.05
2019-05-06T03:00:13.167Z,3.10
2019-05-06T03:00:47.214Z,3.15
2019-05-06T03:01:23.341Z,3.47
2019-05-06T03:01:58.083Z,3.62
2019-05-06T03:02:39.893Z,2.85
2019-05-06T03:03:08.863Z,3.05
2019-05-06T03:03:43.809Z,4.03
2019-05-06T03:04:18.456Z,3.45
2019-05-06T03:04:53.140Z,3.20
2019-05-06T03:05:27.666Z,3.10
2019-05-06T03:06:03.824Z,3.47
2019-05-06T03:06:38.460Z,3.25
2019-05-06T03:07:14.592Z,3.45
2019-05-06T03:07:49.329Z,3.55
2019-05-06T03:08:23.946Z,3.08
2019-05-06T03:08:58.496Z,2.75
2019-05-06T03:09:33.980Z,3.47
2019-05-06T03:10:12.935Z,3.27
2019-05-06T03:10:47.548Z,3.25
2019-05-06T03:11:23.957Z,3.12
2019-05-06T03:11:58.377Z,3.75
2019-05-06T03:12:33.551Z,3.17
2019-05-06T03:13:08.457Z,3.77
2019-05-06T03:13:43.971Z,3.17
2019-05-06T03:14:18.728Z,3.47
2019-05-06T03:14:53.574Z,3.50
2019-05-06T03:15:28.077Z,3.10
2019-05-06T03:16:05.806Z,3.30
2019-05-06T03:16:39.574Z,3.90
2019-05-06T03:17:14.347Z,3.15
2019-05-06T03:17:48.931Z,3.87
2019-05-06T03:18:23.815Z,3.83
2019-05-06T03:18:58.494Z,3.45
2019-05-06T03:19:34.254Z,3.00
2019-05-06T03:20:13.447Z,3.33
2019-05-06T03:20:58.579Z,3.40
2019-05-06T03:21:46.513Z,3.30
2019-05-06T03:22:38.632Z,3.33
2019-05-06T03:23:14.921Z,2.98
2019-05-06T03:23:54.350Z,3.30
2019-05-06T03:24:33.104Z,3.58
2019-05-06T03:25:13.307Z,3.30
2019-05-06T03:25:48.063Z,3.25
2019-05-06T03:26:23.540Z,3.60
2019-05-06T03:26:58.219Z,3.35
2019-05-06T03:27:33.075Z,3.00
2019-05-06T03:28:07.760Z,3.75
2019-05-06T03:28:44.088Z,3.30
2019-05-06T03:29:18.528Z,4.60
2019-05-06T03:29:53.780Z,3.42
2019-05-06T03:30:28.579Z,3.15
2019-05-06T03:31:06.919Z,3.92
2019-05-06T03:31:39.280Z,3.90
2019-05-06T03:32:16.493Z,3.55
2019-05-06T03:33:27.577Z,3.00
2019-05-06T03:33:46.636Z,3.17
2019-05-06T03:34:29.096Z,4.45
2019-05-06T03:35:01.157Z,3.65
2019-05-06T03:35:33.476Z,3.85
2019-05-06T03:36:05.408Z,3.85
2019-05-06T03:36:34.400Z,4.35
2019-05-06T03:37:07.698Z,3.60
2019-05-06T03:37:40.068Z,3.65
2019-05-06T03:38:14.592Z,3.20
2019-05-06T03:38:49.182Z,3.40
2019-05-06T03:39:23.760Z,3.85
2019-05-06T03:39:58.329Z,3.30
2019-05-06T03:40:36.174Z,3.60
2019-05-06T03:41:09.135Z,3.83
2019-05-06T03:41:43.958Z,3.60
2019-05-06T03:42:18.594Z,3.50
2019-05-06T03:42:53.862Z,3.30
2019-05-06T03:43:28.649Z,3.77
2019-05-06T03:44:03.687Z,3.60
2019-05-06T03:44:39.903Z,3.87
2019-05-06T03:45:16.098Z,3.05
2019-05-06T03:45:53.672Z,4.40
2019-05-06T03:46:43.042Z,2.95
2019-05-06T03:47:19.337Z,4.15
2019-05-06T03:48:13.112Z,3.35
2019-05-06T03:48:58.214Z,3.70
2019-05-06T03:49:37.166Z,4.00
2019-05-06T03:50:13.334Z,2.80
2019-05-06T03:50:47.959Z,3.65
2019-05-06T03:51:23.337Z,3.52
2019-05-06T03:51:58.315Z,3.58
2019-05-06T03:52:34.167Z,3.17
2019-05-06T03:53:09.232Z,4.00
2019-05-06T03:53:45.558Z,3.33
2019-05-06T03:54:23.227Z,4.00
2019-05-06T03:54:58.688Z,3.42
2019-05-06T03:55:34.232Z,3.50
2019-05-06T03:56:09.241Z,3.37
2019-05-06T03:56:44.778Z,3.22
2019-05-06T03:57:22.917Z,2.95
2019-05-06T03:57:57.064Z,3.00
2019-05-06T03:58:34.653Z,3.90
2019-05-06T03:59:09.758Z,3.67
2019-05-06T03:59:44.781Z,3.37
2019-05-06T04:00:19.438Z,3.55
2019-05-06T04:00:56.359Z,3.35
2019-05-06T04:01:33.544Z,4.00
2019-05-06T04:02:07.781Z,3.20
2019-05-06T04:02:43.492Z,4.10
2019-05-06T04:03:18.321Z,3.75
2019-05-06T04:03:57.054Z,3.37
2019-05-06T04:04:29.146Z,3.65
2019-05-06T04:05:04.285Z,3.08
2019-05-06T04:05:38.918Z,2.90
2019-05-06T04:06:14.058Z,3.05
2019-05-06T04:06:48.795Z,3.17
2019-05-06T04:07:23.835Z,3.58
2019-05-06T04:07:58.597Z,4.67
2019-05-06T04:08:34.343Z,2.90
2019-05-06T04:09:08.998Z,3.12
2019-05-06T04:09:44.181Z,3.40
2019-05-06T04:10:18.912Z,4.22
2019-05-06T04:10:54.386Z,3.08
2019-05-06T04:11:29.251Z,3.72
2019-05-06T04:12:03.995Z,4.37
2019-05-06T04:12:38.633Z,3.80
2019-05-06T04:13:13.556Z,3.50
2019-05-06T04:13:49.539Z,3.70
2019-05-06T04:14:25.400Z,3.77
2019-05-06T04:15:03.930Z,3.58
2019-05-06T04:15:54.068Z,3.62
2019-05-06T04:16:33.825Z,4.05
2019-05-06T04:17:12.851Z,3.75
2019-05-06T04:17:48.145Z,3.60
2019-05-06T04:18:24.756Z,3.58
2019-05-06T04:19:04.270Z,3.22
2019-05-06T04:19:43.569Z,3.85
2019-05-06T04:20:27.646Z,3.60
2019-05-06T04:21:03.948Z,4.03
2019-05-06T04:21:52.837Z,4.10
2019-05-06T04:22:33.054Z,3.60
2019-05-06T04:23:24.609Z,3.55
2019-05-06T04:24:03.869Z,3.50
2019-05-06T04:24:38.802Z,2.80
2019-05-06T04:25:18.120Z,3.70
2019-05-06T04:26:05.942Z,3.75
2019-05-06T04:26:48.288Z,3.92
2019-05-06T04:27:44.491Z,3.83
2019-05-06T04:28:23.822Z,3.25
2019-05-06T04:28:57.928Z,3.67
2019-05-06T04:29:35.506Z,3.50
2019-05-06T04:30:09.769Z,3.65
2019-05-06T04:30:44.577Z,4.30
2019-05-06T04:31:22.839Z,4.12
2019-05-06T04:31:56.789Z,3.80
2019-05-06T04:32:34.080Z,4.80
2019-05-06T04:33:08.098Z,4.25
2019-05-06T04:33:55.443Z,4.20
2019-05-06T04:34:23.210Z,4.10
2019-05-06T04:34:56.937Z,3.87
2019-05-06T04:35:33.826Z,4.00
2019-05-06T04:36:08.034Z,3.80
2019-05-06T04:36:44.098Z,4.30
2019-05-06T04:37:18.994Z,4.50
2019-05-06T04:37:54.108Z,4.17
2019-05-06T04:38:28.885Z,4.53
2019-05-06T04:39:04.421Z,3.85
2019-05-06T04:39:40.077Z,3.95
2019-05-06T04:40:14.798Z,3.92
2019-05-06T04:40:49.491Z,4.65
2019-05-06T04:41:26.626Z,4.33
2019-05-06T04:42:03.423Z,4.08
2019-05-06T04:42:37.549Z,4.40
2019-05-06T04:43:13.299Z,3.83
2019-05-06T04:43:48.223Z,6.20
2019-05-06T04:44:23.709Z,4.20
2019-05-06T04:44:58.701Z,3.87
2019-05-06T04:45:33.836Z,4.65
2019-05-06T04:46:08.521Z,4.50
2019-05-06T04:46:44.378Z,3.98
2019-05-06T04:47:19.238Z,3.72
2019-05-06T04:47:54.180Z,4.65
2019-05-06T04:48:28.819Z,4.28
2019-05-06T04:49:04.147Z,3.55
2019-05-06T04:49:38.849Z,4.15
2019-05-06T04:50:14.010Z,4.20
2019-05-06T04:50:48.549Z,3.95
2019-05-06T04:51:24.765Z,5.00
2019-05-06T04:51:59.328Z,3.83
2019-05-06T04:52:34.348Z,3.83
2019-05-06T04:53:09.160Z,4.03
2019-05-06T04:53:44.319Z,3.92
2019-05-06T04:54:19.090Z,4.80
2019-05-06T04:54:53.670Z,4.40
2019-05-06T04:55:28.270Z,3.85
2019-05-06T04:56:03.829Z,3.80
2019-05-06T04:56:38.882Z,3.98
2019-05-06T04:57:13.524Z,4.42
2019-05-06T04:57:48.289Z,3.72
2019-05-06T04:58:23.447Z,4.28
2019-05-06T04:58:58.170Z,4.30
2019-05-06T04:59:32.760Z,4.40
2019-05-06T05:00:07.640Z,4.35
2019-05-06T05:00:44.558Z,4.53
2019-05-06T05:01:18.541Z,4.12
2019-05-06T05:01:53.616Z,4.37
2019-05-06T05:02:28.319Z,4.17
2019-05-06T05:03:03.243Z,4.10
2019-05-06T05:03:37.757Z,4.35
2019-05-06T05:04:26.850Z,4.25
2019-05-06T05:04:52.637Z,4.60
2019-05-06T05:05:25.808Z,3.92
2019-05-06T05:06:02.977Z,4.15
2019-05-06T05:06:37.046Z,4.20
2019-05-06T05:07:12.805Z,4.08
2019-05-06T05:07:47.548Z,5.15
2019-05-06T05:08:24.074Z,4.53
2019-05-06T05:08:58.612Z,5.40
2019-05-06T05:09:35.292Z,4.10
2019-05-06T05:10:19.293Z,4.75
2019-05-06T05:12:23.178Z,4.92
2019-05-06T05:13:03.379Z,4.97
2019-05-06T05:13:39.028Z,4.25
2019-05-06T05:14:25.782Z,4.97
2019-05-06T05:15:03.296Z,4.22
2019-05-06T05:15:46.141Z,4.20
2019-05-06T05:16:23.752Z,4.75
2019-05-06T05:17:03.173Z,4.17
2019-05-06T05:17:39.317Z,4.83
2019-05-06T05:18:15.706Z,4.42
2019-05-06T05:18:53.087Z,5.55
2019-05-06T05:19:29.304Z,4.20
2019-05-06T05:20:06.145Z,4.75
2019-05-06T05:20:46.062Z,4.67
2019-05-06T05:21:17.142Z,4.75
2019-05-06T05:21:53.547Z,5.20
2019-05-06T05:22:28.118Z,4.90
2019-05-06T05:23:02.699Z,4.20
2019-05-06T05:23:37.335Z,3.75
2019-05-06T05:24:12.299Z,4.85
2019-05-06T05:24:46.890Z,5.22
2019-05-06T05:25:22.260Z,5.17
2019-05-06T05:25:56.877Z,4.85
2019-05-06T05:26:32.287Z,4.30
2019-05-06T05:27:07.560Z,4.90
2019-05-06T05:27:42.260Z,5.83
2019-05-06T05:28:16.818Z,4.47
2019-05-06T05:28:53.190Z,4.03
2019-05-06T05:29:28.131Z,4.67
2019-05-06T05:30:02.636Z,4.90
2019-05-06T05:30:37.149Z,5.45
2019-05-06T05:31:12.255Z,5.37
2019-05-06T05:31:46.977Z,4.42
2019-05-06T05:32:22.531Z,4.90
2019-05-06T05:32:57.310Z,5.45
2019-05-06T05:33:32.777Z,4.62
2019-05-06T05:34:07.526Z,5.20
2019-05-06T05:34:43.579Z,5.37
2019-05-06T05:35:18.337Z,5.30
2019-05-06T05:35:52.933Z,5.15
2019-05-06T05:36:27.641Z,4.62
2019-05-06T05:37:03.034Z,4.47
2019-05-06T05:37:37.999Z,4.60
2019-05-06T05:38:13.225Z,4.85
2019-05-06T05:38:47.992Z,5.22
2019-05-06T05:39:22.741Z,4.70
2019-05-06T05:39:57.480Z,4.30
2019-05-06T05:40:32.285Z,4.92
2019-05-06T05:41:06.872Z,6.75
2019-05-06T05:41:42.893Z,5.00
2019-05-06T05:42:28.109Z,4.17
2019-05-06T05:43:07.081Z,4.85
2019-05-06T05:43:46.764Z,4.80
2019-05-06T05:44:22.930Z,4.80
2019-05-06T05:44:57.439Z,4.50
2019-05-06T05:45:32.709Z,5.97
2019-05-06T05:46:07.383Z,4.95
2019-05-06T05:46:43.809Z,5.25
2019-05-06T05:47:18.228Z,3.92
2019-05-06T05:47:54.283Z,5.28
2019-05-06T05:48:33.723Z,4.75
2019-05-06T05:49:22.537Z,4.80
2019-05-06T05:50:03.026Z,4.80
2019-05-06T05:50:41.917Z,4.12
2019-05-06T05:51:15.847Z,4.50
2019-05-06T05:51:51.925Z,4.62
2019-05-06T05:52:27.512Z,4.80
2019-05-06T05:53:02.536Z,4.95
2019-05-06T05:53:37.183Z,4.25
2019-05-06T05:54:12.446Z,4.70
2019-05-06T05:54:47.179Z,4.65
2019-05-06T05:55:22.018Z,4.85
2019-05-06T05:55:56.640Z,4.45
2019-05-06T05:56:32.925Z,4.50
2019-05-06T05:57:07.756Z,4.30
2019-05-06T05:57:43.266Z,5.10
2019-05-06T05:58:18.492Z,4.95
2019-05-06T05:58:53.662Z,5.42
2019-05-06T05:59:28.356Z,5.65
2019-05-06T06:00:04.083Z,4.85
2019-05-06T06:00:39.554Z,5.75
2019-05-06T06:01:14.233Z,4.30
2019-05-06T06:01:49.055Z,5.10
2019-05-06T06:02:23.647Z,4.40
2019-05-06T06:02:58.150Z,5.80
2019-05-06T06:03:32.679Z,5.08
2019-05-06T06:04:07.329Z,4.53
2019-05-06T06:04:54.113Z,4.28
2019-05-06T06:05:18.115Z,4.53
2019-05-06T06:05:52.698Z,4.30
2019-05-06T06:06:27.286Z,4.60
2019-05-06T06:07:02.706Z,4.58
2019-05-06T06:07:37.681Z,4.75
2019-05-06T06:08:12.976Z,5.03
2019-05-06T06:08:47.578Z,4.37
2019-05-06T06:09:23.799Z,4.28
2019-05-06T06:10:16.056Z,4.80
2019-05-06T06:11:07.403Z,6.25
2019-05-06T06:11:46.719Z,5.25
2019-05-06T06:12:22.998Z,4.70
2019-05-06T06:12:58.335Z,5.20
2019-05-06T06:13:33.229Z,4.47
2019-05-06T06:14:25.599Z,4.95
2019-05-06T06:15:02.321Z,5.05
2019-05-06T06:15:38.482Z,4.85
2019-05-06T06:16:23.786Z,4.83
2019-05-06T06:17:16.130Z,4.95
2019-05-06T06:17:54.978Z,5.58
2019-05-06T06:18:33.676Z,5.05
2019-05-06T06:19:18.402Z,5.40
2019-05-06T06:19:54.618Z,5.00
2019-05-06T06:20:47.050Z,4.83
2019-05-06T06:21:32.399Z,5.20
2019-05-06T06:22:08.601Z,4.70
2019-05-06T06:22:43.097Z,5.17
2019-05-06T06:23:35.471Z,5.85
2019-05-06T06:24:14.180Z,5.50
2019-05-06T06:24:48.681Z,4.87
2019-05-06T06:25:23.721Z,4.90
2019-05-06T06:25:58.415Z,5.00
2019-05-06T06:26:33.001Z,4.67
2019-05-06T06:27:07.580Z,4.85
2019-05-06T06:27:46.752Z,4.05
2019-05-06T06:28:22.785Z,4.85
2019-05-06T06:28:57.421Z,5.10
2019-05-06T06:29:32.403Z,4.58
2019-05-06T06:30:07.153Z,4.53
2019-05-06T06:30:45.866Z,4.72
2019-05-06T06:31:38.259Z,4.92
2019-05-06T06:32:17.591Z,4.50
2019-05-06T06:32:52.763Z,4.67
2019-05-06T06:33:27.402Z,4.95
2019-05-06T06:34:09.633Z,4.25
2019-05-06T06:35:09.908Z,5.15
2019-05-06T06:35:35.201Z,4.42
2019-05-06T06:36:20.089Z,3.80
2019-05-06T06:36:59.093Z,5.35
2019-05-06T06:37:38.260Z,5.25
2019-05-06T06:38:17.056Z,5.20
2019-05-06T06:39:07.961Z,4.85
2019-05-06T06:39:44.181Z,4.92
2019-05-06T06:40:22.282Z,4.80
2019-05-06T06:40:56.929Z,5.95
2019-05-06T06:41:32.294Z,5.75
2019-05-06T06:42:07.024Z,5.03
2019-05-06T06:42:42.733Z,5.00
2019-05-06T06:43:18.531Z,5.60
2019-05-06T06:44:03.344Z,4.65
2019-05-06T06:44:38.065Z,5.50
2019-05-06T06:45:12.636Z,5.10
2019-05-06T06:45:47.349Z,4.62
2019-05-06T06:46:22.483Z,4.75
2019-05-06T06:46:57.088Z,4.03
2019-05-06T06:47:32.052Z,4.30
2019-05-06T06:48:06.840Z,4.90
2019-05-06T06:48:43.059Z,4.10
2019-05-06T06:49:17.687Z,4.08
2019-05-06T06:49:53.512Z,4.65
2019-05-06T06:50:28.132Z,4.08
2019-05-06T06:51:03.457Z,4.60
2019-05-06T06:51:38.203Z,4.33
2019-05-06T06:52:14.847Z,4.62
2019-05-06T06:52:48.952Z,3.77
2019-05-06T06:53:23.548Z,4.60
2019-05-06T06:53:58.060Z,4.33
2019-05-06T06:54:32.636Z,4.50
2019-05-06T06:55:07.687Z,4.42
2019-05-06T06:55:42.859Z,3.65
2019-05-06T06:56:35.246Z,5.03
2019-05-06T06:57:27.307Z,5.15
2019-05-06T06:58:03.791Z,4.42
2019-05-06T06:58:41.668Z,4.90
2019-05-06T06:59:22.158Z,3.92
2019-05-06T06:59:59.373Z,4.03
2019-05-06T07:00:42.487Z,4.97
2019-05-06T07:01:23.487Z,4.10
2019-05-06T07:02:02.595Z,4.33
2019-05-06T07:02:39.423Z,5.28
2019-05-06T07:03:18.207Z,4.17
2019-05-06T07:03:54.423Z,3.62
2019-05-06T07:04:46.339Z,4.50
2019-05-06T07:05:37.368Z,4.55
2019-05-06T07:06:14.063Z,5.50
2019-05-06T07:06:50.304Z,5.33
2019-05-06T07:07:40.213Z,4.95
2019-05-06T07:08:02.813Z,5.12
2019-05-06T07:08:37.840Z,5.25
2019-05-06T07:09:12.630Z,5.30
2019-05-06T07:09:47.158Z,4.20
2019-05-06T07:10:39.742Z,4.42
2019-05-06T07:11:14.367Z,4.75
2019-05-06T07:11:48.887Z,4.95
2019-05-06T07:12:23.555Z,4.45
2019-05-06T07:12:58.150Z,4.53
2019-05-06T07:13:33.213Z,5.08
2019-05-06T07:14:07.923Z,4.92
2019-05-06T07:14:42.904Z,5.65
2019-05-06T07:15:17.459Z,4.58
2019-05-06T07:15:52.118Z,4.22
2019-05-06T07:16:26.790Z,4.70
2019-05-06T07:17:02.473Z,4.92
2019-05-06T07:17:37.143Z,4.45
2019-05-06T07:18:13.454Z,4.37
2019-05-06T07:18:47.931Z,3.95
2019-05-06T07:19:29.770Z,4.92
2019-05-06T07:20:13.229Z,4.20
2019-05-06T07:20:55.530Z,3.60
2019-05-06T07:21:52.121Z,5.33
2019-05-06T07:22:27.897Z,4.37
2019-05-06T07:23:04.041Z,5.12
2019-05-06T07:23:38.626Z,4.85
2019-05-06T07:24:13.239Z,4.58
2019-05-06T07:24:47.803Z,4.80
2019-05-06T07:25:22.764Z,4.35
2019-05-06T07:25:57.304Z,5.00
2019-05-06T07:26:33.534Z,4.62
2019-05-06T07:27:09.785Z,4.08
2019-05-06T07:27:44.289Z,4.15
2019-05-06T07:28:18.873Z,3.58
2019-05-06T07:28:53.453Z,4.08
2019-05-06T07:29:32.781Z,4.00
2019-05-06T07:30:08.188Z,3.62
2019-05-06T07:30:42.773Z,3.95
2019-05-06T07:31:22.600Z,3.65
2019-05-06T07:31:53.897Z,3.72
2019-05-06T07:32:28.473Z,3.12
2019-05-06T07:33:03.655Z,3.67
2019-05-06T07:33:38.401Z,3.33
2019-05-06T07:34:13.364Z,3.40
2019-05-06T07:34:47.982Z,3.98
2019-05-06T07:35:37.422Z,3.95
2019-05-06T07:35:59.094Z,3.95
2019-05-06T07:36:33.599Z,3.12
2019-05-06T07:37:08.164Z,2.80
2019-05-06T07:37:42.748Z,3.27
2019-05-06T07:38:17.413Z,4.75
2019-05-06T07:38:52.942Z,3.35
2019-05-06T07:39:27.575Z,3.70
2019-05-06T07:40:03.107Z,3.87
2019-05-06T07:40:37.695Z,3.60
2019-05-06T07:41:15.068Z,4.15
2019-05-06T07:41:53.452Z,3.72
2019-05-06T07:42:29.501Z,3.85
2019-05-06T07:43:22.101Z,4.58
2019-05-06T07:43:58.332Z,4.60
2019-05-06T07:44:49.366Z,3.60
2019-05-06T07:45:28.207Z,3.60
2019-05-06T07:46:07.704Z,3.40
2019-05-06T07:46:44.116Z,3.08
2019-05-06T07:47:24.000Z,3.62
2019-05-06T07:48:06.193Z,4.05
2019-05-06T07:48:42.762Z,4.17
2019-05-06T07:49:16.951Z,4.05
2019-05-06T07:49:53.114Z,3.92
2019-05-06T07:50:27.841Z,4.22
2019-05-06T07:51:03.078Z,3.20
2019-05-06T07:51:37.742Z,3.47
2019-05-06T07:52:12.437Z,3.20
2019-05-06T07:53:04.751Z,3.22
2019-05-06T07:53:39.253Z,2.90
2019-05-06T07:54:13.921Z,3.10
2019-05-06T07:54:48.482Z,2.83
2019-05-06T07:55:23.280Z,3.05
2019-05-06T07:55:57.871Z,3.25
2019-05-06T07:56:32.429Z,2.92
2019-05-06T07:57:07.020Z,3.47
2019-05-06T07:57:42.409Z,2.67
2019-05-06T07:58:16.983Z,2.77
2019-05-06T07:58:53.135Z,3.17
2019-05-06T07:59:27.702Z,2.65
2019-05-06T08:00:03.411Z,2.90
2019-05-06T08:00:38.182Z,2.85
2019-05-06T08:01:13.606Z,3.47
2019-05-06T08:01:48.487Z,3.30
2019-05-06T08:02:23.148Z,2.45
2019-05-06T08:02:57.920Z,2.85
2019-05-06T08:03:33.064Z,3.62
2019-05-06T08:04:08.302Z,2.50
2019-05-06T08:04:42.818Z,3.17
2019-05-06T08:05:17.410Z,2.20
2019-05-06T08:05:58.200Z,2.70
2019-05-06T08:06:28.187Z,2.85
2019-05-06T08:07:03.275Z,2.80
2019-05-06T08:07:37.873Z,2.25
2019-05-06T08:08:12.985Z,2.50
2019-05-06T08:08:47.554Z,2.72
2019-05-06T08:09:22.225Z,2.58
2019-05-06T08:09:57.006Z,2.40